Time;durP1;ratioP1;P1;durP2;ratioP2;P2;SDS_P1;SDS_P2;PMS_P1;PMS_P2;Temp;Humidity;BMP_temperature;BMP_pressure;BME280_temperature;BME280_humidity;BME280_pressure;Samples;Min_cycle;Max_cycle;Signal;HPM_P1;HPM_P2
2021/11/13 00:00:48;;;;;;;0.10;0.10;;;;;;;13.47;100.00;99088.44;5083767;28;20036;-50
2021/11/13 00:03:51;;;;;;;5.97;1.00;;;;;;;13.49;100.00;99086.63;5075792;28;20554;-50
2021/11/13 00:06:55;;;;;;;0.65;0.35;;;;;;;13.44;100.00;99112.59;5085183;28;20040;-51
2021/11/13 00:09:58;;;;;;;0.15;0.05;;;;;;;13.30;100.00;99116.44;5077543;28;20044;-50
2021/11/13 00:13:06;;;;;;;0.28;0.20;;;;;;;13.48;100.00;99124.28;5075177;28;20047;-50
2021/11/13 00:16:09;;;;;;;1.40;0.52;;;;;;;13.43;100.00;99122.25;5078043;28;20454;-51
2021/11/13 00:19:12;;;;;;;0.40;0.20;;;;;;;13.27;100.00;99131.47;5075678;28;20048;-51
2021/11/13 00:22:15;;;;;;;1.05;0.52;;;;;;;13.27;100.00;99130.69;5075282;28;20090;-51
2021/11/13 00:25:18;;;;;;;19.95;0.75;;;;;;;13.47;100.00;99125.53;5075402;28;20043;-51
2021/11/13 00:28:21;;;;;;;0.45;0.45;;;;;;;13.45;100.00;99152.50;5074959;28;20070;-51
2021/11/13 00:31:24;;;;;;;8.65;0.73;;;;;;;13.43;100.00;99155.06;5080912;28;20098;-52
2021/11/13 00:34:27;;;;;;;0.10;0.10;;;;;;;13.44;100.00;99143.38;5075433;28;20109;-51
2021/11/13 00:37:34;;;;;;;0.20;0.10;;;;;;;13.57;100.00;99148.41;5075837;28;20039;-52
2021/11/13 00:40:38;;;;;;;0.63;0.10;;;;;;;13.58;100.00;99152.72;5088636;28;20407;-51
2021/11/13 00:43:40;;;;;;;2.40;0.68;;;;;;;13.40;100.00;99173.63;5074930;28;20086;-51
2021/11/13 00:46:43;;;;;;;0.30;0.10;;;;;;;13.41;100.00;99172.34;5074071;28;20128;-52
2021/11/13 00:49:46;;;;;;;14.45;1.13;;;;;;;13.46;100.00;99182.78;5074960;28;20538;-52
2021/11/13 00:52:49;;;;;;;4.30;0.35;;;;;;;13.55;100.00;99167.75;5074589;28;20036;-51
2021/11/13 00:55:52;;;;;;;0.35;0.05;;;;;;;13.64;100.00;99170.28;5074950;28;20097;-51
2021/11/13 00:58:55;;;;;;;1.17;0.20;;;;;;;13.55;100.00;99171.31;5073688;28;20091;-51
2021/11/13 01:01:59;;;;;;;0.82;0.35;;;;;;;13.49;100.00;99164.22;5074761;28;20664;-51
2021/11/13 01:05:03;;;;;;;0.10;0.10;;;;;;;13.55;100.00;99173.34;5083187;28;20046;-51
2021/11/13 01:08:06;;;;;;;18.25;0.77;;;;;;;13.58;100.00;99177.91;5074551;28;20044;-51
2021/11/13 01:11:09;;;;;;;0.20;0.20;;;;;;;13.46;100.00;99182.78;5074103;28;20114;-51
2021/11/13 01:14:12;;;;;;;0.20;0.20;;;;;;;13.50;100.00;99191.66;5057274;28;20054;-51
2021/11/13 01:17:16;;;;;;;0.10;0.10;;;;;;;13.35;100.00;99199.56;5062041;28;20055;-51
2021/11/13 01:20:23;;;;;;;1.88;0.65;;;;;;;13.49;100.00;99192.94;5076708;28;20043;-51
2021/11/13 01:23:26;;;;;;;1.13;0.43;;;;;;;13.53;100.00;99199.03;5074113;28;20048;-52
2021/11/13 01:26:29;;;;;;;1.40;1.17;;;;;;;13.56;100.00;99203.59;5073852;28;20413;-52
2021/11/13 01:29:32;;;;;;;6.53;0.95;;;;;;;13.54;100.00;99211.75;5076135;28;20437;-52
2021/11/13 01:32:36;;;;;;;0.32;0.30;;;;;;;13.56;100.00;99225.22;5074732;28;20071;-53
2021/11/13 01:35:40;;;;;;;0.20;0.20;;;;;;;13.47;100.00;99225.50;5072677;28;20063;-52
2021/11/13 01:38:43;;;;;;;0.30;0.30;;;;;;;13.61;100.00;99228.03;5073892;28;20128;-52
2021/11/13 01:41:48;;;;;;;3.92;0.50;;;;;;;13.76;100.00;99250.13;5073708;28;20043;-52
2021/11/13 01:44:55;;;;;;;0.10;0.10;;;;;;;13.65;100.00;99259.28;5073876;28;20055;-52
2021/11/13 01:47:58;;;;;;;0.30;0.22;;;;;;;13.79;100.00;99270.72;5073279;28;20098;-52
2021/11/13 01:51:02;;;;;;;3.40;0.45;;;;;;;13.73;100.00;99283.97;5080115;28;20508;-52
2021/11/13 01:54:07;;;;;;;0.17;0.10;;;;;;;13.75;100.00;99292.63;5073754;28;20094;-53
2021/11/13 01:57:19;;;;;;;1.30;0.25;;;;;;;13.66;100.00;99291.59;5074058;28;20166;-52
2021/11/13 02:00:38;;;;;;;0.28;0.28;;;;;;;13.77;100.00;99285.22;5074000;28;20146;-52
2021/11/13 02:03:45;;;;;;;0.65;0.40;;;;;;;13.88;100.00;99285.19;5073462;28;20472;-52
2021/11/13 02:06:48;;;;;;;1.73;0.22;;;;;;;13.81;100.00;99290.56;5073415;28;20071;-52
2021/11/13 02:09:50;;;;;;;6.07;1.65;;;;;;;13.82;100.00;99298.44;5073301;28;20106;-52
2021/11/13 02:12:54;;;;;;;0.63;0.20;;;;;;;13.79;100.00;99309.91;5073196;28;20101;-51
2021/11/13 02:15:58;;;;;;;1.30;0.52;;;;;;;13.82;100.00;99314.50;5077718;28;20161;-52
2021/11/13 02:19:01;;;;;;;0.75;0.57;;;;;;;13.84;100.00;99323.13;5072476;28;20047;-52
2021/11/13 02:22:05;;;;;;;0.10;0.10;;;;;;;13.86;100.00;99326.94;5072226;28;20070;-51
2021/11/13 02:25:08;;;;;;;11.00;1.08;;;;;;;13.82;100.00;99334.09;5077025;28;20084;-52
2021/11/13 02:28:14;;;;;;;2.58;0.47;;;;;;;13.99;100.00;99341.16;5079923;28;20044;-51
2021/11/13 02:31:18;;;;;;;1.42;0.55;;;;;;;14.00;100.00;99339.13;5073402;28;20051;-52
2021/11/13 02:34:21;;;;;;;0.52;0.30;;;;;;;13.91;100.00;99333.78;5073093;28;20047;-53
2021/11/13 02:37:27;;;;;;;0.32;0.32;;;;;;;13.88;100.00;99323.63;5073362;28;20043;-53
2021/11/13 02:40:30;;;;;;;0.80;0.50;;;;;;;13.92;100.00;99319.31;5072996;28;20117;-53
2021/11/13 02:43:35;;;;;;;8.50;0.55;;;;;;;13.84;100.00;99328.72;5073244;28;20459;-51
2021/11/13 02:46:39;;;;;;;0.20;0.20;;;;;;;13.88;100.00;99329.97;5072797;28;20115;-53
2021/11/13 02:49:44;;;;;;;0.75;0.55;;;;;;;13.95;100.00;99325.91;5073291;28;20047;-52
2021/11/13 02:52:52;;;;;;;0.73;0.32;;;;;;;13.95;100.00;99328.69;5072880;28;20102;-52
2021/11/13 02:55:56;;;;;;;0.60;0.10;;;;;;;13.88;100.00;99329.22;5072825;28;20433;-52
2021/11/13 02:59:00;;;;;;;0.17;0.10;;;;;;;13.76;100.00;99322.09;5091877;28;20043;-52
2021/11/13 03:02:03;;;;;;;0.43;0.43;;;;;;;13.89;100.00;99341.94;5093441;28;20079;-53
2021/11/13 03:05:31;;;;;;;3.60;0.57;;;;;;;14.08;100.00;99342.94;5093181;28;20051;-52
2021/11/13 03:08:35;;;;;;;1.98;0.45;;;;;;;14.19;100.00;99348.50;5092919;28;20043;-52
2021/11/13 03:11:38;;;;;;;2.20;0.30;;;;;;;14.33;100.00;99361.50;5092879;28;20128;-52
2021/11/13 03:14:40;;;;;;;4.53;0.35;;;;;;;14.31;100.00;99375.25;5092953;28;20051;-52
2021/11/13 03:17:44;;;;;;;1.02;0.25;;;;;;;13.19;100.00;99382.06;5092532;28;20451;-51
2021/11/13 03:20:48;;;;;;;0.57;0.10;;;;;;;13.12;100.00;99404.97;5093056;28;20400;-52
2021/11/13 03:23:50;;;;;;;1.48;0.30;;;;;;;13.85;100.00;99408.63;5092777;28;20131;-51
2021/11/13 03:26:53;;;;;;;0.35;0.20;;;;;;;13.95;100.00;99418.28;5091918;28;20115;-51
2021/11/13 03:29:57;;;;;;;0.22;0.20;;;;;;;14.07;100.00;99391.81;5099641;28;20043;-52
2021/11/13 03:33:00;;;;;;;0.20;0.15;;;;;;;13.91;100.00;99407.34;5099833;28;20135;-51
2021/11/13 03:36:03;;;;;;;1.60;0.40;;;;;;;14.25;100.00;99402.50;5097977;28;20059;-52
2021/11/13 03:39:07;;;;;;;0.30;0.28;;;;;;;14.48;100.00;99401.19;5099271;28;20043;-52
2021/11/13 03:42:10;;;;;;;5.07;0.85;;;;;;;14.38;100.00;99405.53;5098954;28;20067;-51
2021/11/13 03:45:13;;;;;;;4.32;0.45;;;;;;;14.47;100.00;99405.25;5099396;28;20131;-51
2021/11/13 03:48:16;;;;;;;8.60;0.45;;;;;;;14.45;100.00;99416.22;5099388;28;20051;-52
2021/11/13 03:51:20;;;;;;;0.50;0.50;;;;;;;14.49;100.00;99416.72;5097391;28;20047;-52
2021/11/13 03:54:23;;;;;;;6.32;0.65;;;;;;;14.40;100.00;99414.22;5099355;28;20046;-51
2021/11/13 03:57:26;;;;;;;0.20;0.10;;;;;;;12.37;100.00;99421.56;5099491;28;20301;-52
2021/11/13 04:00:29;;;;;;;0.57;0.57;;;;;;;11.31;100.00;99436.63;5099292;28;20047;-52
2021/11/13 04:03:32;;;;;;;0.75;0.55;;;;;;;11.44;100.00;99442.59;5099526;28;20043;-53
2021/11/13 04:06:35;;;;;;;0.55;0.40;;;;;;;11.73;100.00;99444.44;5099149;28;20047;-53
2021/11/13 04:09:39;;;;;;;1.73;1.10;;;;;;;11.49;100.00;99447.47;5098166;28;20050;-54
2021/11/13 04:12:43;;;;;;;0.13;0.10;;;;;;;11.48;100.00;99457.06;5099211;28;20105;-53
2021/11/13 04:15:46;;;;;;;0.30;0.30;;;;;;;11.19;100.00;99469.19;5099022;28;20035;-54
2021/11/13 04:18:51;;;;;;;1.52;0.30;;;;;;;11.76;100.00;99472.09;5098458;28;20035;-53
2021/11/13 04:21:54;;;;;;;0.88;0.55;;;;;;;11.57;100.00;99482.03;5099147;28;20074;-54
2021/11/13 04:24:58;;;;;;;0.20;0.20;;;;;;;12.31;100.00;99479.41;5099051;28;20133;-53
2021/11/13 04:28:02;;;;;;;8.88;0.30;;;;;;;13.75;100.00;99474.53;5098215;28;20476;-53
2021/11/13 04:31:05;;;;;;;0.20;0.20;;;;;;;14.13;100.00;99473.78;5098933;28;20148;-53
2021/11/13 04:34:13;;;;;;;0.10;0.10;;;;;;;14.27;100.00;99467.16;5098970;28;20062;-53
2021/11/13 04:37:18;;;;;;;1.75;0.50;;;;;;;14.58;100.00;99474.53;5099112;28;20070;-53
2021/11/13 04:40:28;;;;;;;0.10;0.10;;;;;;;14.69;100.00;99480.88;5096025;28;20055;-53
2021/11/13 04:43:31;;;;;;;0.20;0.10;;;;;;;14.66;100.00;99487.50;5096125;28;20093;-53
2021/11/13 04:46:34;;;;;;;0.25;0.10;;;;;;;14.58;100.00;99486.50;5095571;28;20097;-54
2021/11/13 04:49:37;;;;;;;0.68;0.20;;;;;;;14.44;100.00;99487.56;5094178;28;20564;-53
2021/11/13 04:52:40;;;;;;;0.43;0.43;;;;;;;14.60;100.00;99480.38;5095596;28;20086;-53
2021/11/13 04:55:43;;;;;;;0.20;0.10;;;;;;;14.56;100.00;99480.66;5094698;28;20569;-53
2021/11/13 04:58:47;;;;;;;0.30;0.30;;;;;;;14.56;100.00;99477.84;5087083;28;20043;-54
2021/11/13 05:01:50;;;;;;;0.70;0.70;;;;;;;14.60;100.00;99469.16;5089731;28;20533;-53
2021/11/13 05:04:56;;;;;;;3.22;0.93;;;;;;;14.67;100.00;99489.03;5095143;28;20447;-53
2021/11/13 05:07:59;;;;;;;0.95;0.80;;;;;;;14.75;100.00;99480.88;5095299;28;20051;-53
2021/11/13 05:11:02;;;;;;;1.52;0.47;;;;;;;14.74;100.00;99494.13;5095184;28;20081;-53
2021/11/13 05:14:05;;;;;;;2.45;0.20;;;;;;;14.68;100.00;99503.81;5095097;28;20403;-52
2021/11/13 05:17:08;;;;;;;0.43;0.43;;;;;;;14.68;100.00;99507.41;5095077;28;20124;-53
2021/11/13 05:20:12;;;;;;;2.70;0.43;;;;;;;14.81;100.00;99504.81;5095129;28;20054;-53
2021/11/13 05:23:16;;;;;;;6.50;0.38;;;;;;;14.77;100.00;99512.72;5094884;28;20050;-53
2021/11/13 05:26:18;;;;;;;0.45;0.25;;;;;;;14.84;100.00;99506.59;5094821;28;20154;-53
2021/11/13 05:29:22;;;;;;;0.47;0.47;;;;;;;14.66;100.00;99515.53;5093684;28;20457;-53
2021/11/13 05:32:24;;;;;;;0.85;0.30;;;;;;;14.73;100.00;99508.63;5094597;28;20046;-53
2021/11/13 05:35:27;;;;;;;0.10;0.10;;;;;;;14.56;100.00;99517.09;5094173;28;20059;-53
2021/11/13 05:38:30;;;;;;;0.43;0.43;;;;;;;14.51;100.00;99523.44;5095054;28;20044;-53
2021/11/13 05:41:34;;;;;;;5.47;1.63;;;;;;;14.46;100.00;99527.03;5094747;28;20140;-53
2021/11/13 05:44:38;;;;;;;6.22;0.70;;;;;;;14.54;100.00;99528.03;5093357;28;20047;-53
2021/11/13 05:47:42;;;;;;;0.65;0.63;;;;;;;14.66;100.00;99537.94;5093971;28;20151;-54
2021/11/13 05:50:46;;;;;;;1.77;0.80;;;;;;;14.66;100.00;99532.34;5093890;28;20047;-54
2021/11/13 05:53:49;;;;;;;2.60;1.05;;;;;;;14.53;100.00;99551.72;5094071;28;20050;-53
2021/11/13 05:56:51;;;;;;;0.22;0.10;;;;;;;14.70;100.00;99549.69;5094233;28;20455;-53
2021/11/13 05:59:54;;;;;;;0.20;0.20;;;;;;;14.58;100.00;99548.16;5093885;28;20051;-53
2021/11/13 06:02:57;;;;;;;0.95;0.30;;;;;;;14.58;100.00;99564.97;5092396;28;20128;-52
2021/11/13 06:06:01;;;;;;;2.40;0.28;;;;;;;14.69;100.00;99570.56;5094060;28;20050;-53
2021/11/13 06:09:04;;;;;;;0.20;0.20;;;;;;;14.64;100.00;99562.19;5093587;28;20082;-53
2021/11/13 06:12:08;;;;;;;0.73;0.30;;;;;;;14.78;100.00;99573.13;5093761;28;20074;-53
2021/11/13 06:15:12;;;;;;;9.65;1.55;;;;;;;14.40;100.00;99583.06;5094149;28;20545;-53
2021/11/13 06:18:15;;;;;;;1.30;0.50;;;;;;;14.49;100.00;99590.44;5073642;28;20067;-53
2021/11/13 06:21:18;;;;;;;0.25;0.25;;;;;;;14.75;100.00;99584.59;5073413;28;20042;-53
2021/11/13 06:24:21;;;;;;;0.32;0.32;;;;;;;14.72;100.00;99589.19;5073508;28;20055;-53
2021/11/13 06:27:24;;;;;;;0.10;0.10;;;;;;;14.63;100.00;99603.47;5073293;28;20060;-53
2021/11/13 06:30:28;;;;;;;4.63;0.63;;;;;;;13.96;100.00;99610.19;5073912;28;20039;-54
2021/11/13 06:33:31;;;;;;;1.38;0.45;;;;;;;14.79;100.00;99618.75;5073225;28;20047;-53
2021/11/13 06:36:34;;;;;;;0.88;0.70;;;;;;;14.66;100.00;99622.03;5085507;28;20084;-53
2021/11/13 06:39:37;;;;;;;11.85;0.50;;;;;;;14.71;100.00;99640.91;5093779;28;20782;-53
2021/11/13 06:42:41;;;;;;;1.35;0.77;;;;;;;14.71;100.00;99654.91;5092733;28;20058;-53
2021/11/13 06:45:44;;;;;;;3.33;1.35;;;;;;;14.73;100.00;99669.19;5093364;28;20046;-53
2021/11/13 06:48:46;;;;;;;4.03;0.73;;;;;;;14.73;100.00;99666.38;5091098;28;20070;-52
2021/11/13 06:51:49;;;;;;;7.70;0.82;;;;;;;14.65;100.00;99676.59;5093184;28;20126;-52
2021/11/13 06:54:52;;;;;;;10.32;0.95;;;;;;;14.88;100.00;99668.94;5093178;28;20047;-52
2021/11/13 06:57:55;;;;;;;0.73;0.30;;;;;;;14.95;100.00;99683.22;5093063;28;20089;-52
2021/11/13 07:00:58;;;;;;;0.75;0.75;;;;;;;15.02;100.00;99685.53;5093304;28;20042;-53
2021/11/13 07:04:01;;;;;;;1.00;0.63;;;;;;;15.00;100.00;99678.91;5092869;28;20038;-51
2021/11/13 07:07:05;;;;;;;0.30;0.15;;;;;;;14.62;100.00;99685.25;5093069;28;20097;-52
2021/11/13 07:10:10;;;;;;;3.22;0.60;;;;;;;14.54;100.00;99682.16;5092815;28;20074;-52
2021/11/13 07:13:13;;;;;;;3.47;0.95;;;;;;;15.01;100.00;99691.63;5093133;28;20093;-52
2021/11/13 07:16:16;;;;;;;0.55;0.43;;;;;;;14.94;100.00;99698.50;5091838;28;20081;-52
2021/11/13 07:19:19;;;;;;;0.85;0.50;;;;;;;14.99;100.00;99711.78;5092861;28;20051;-52
2021/11/13 07:22:23;;;;;;;1.52;0.38;;;;;;;14.98;100.00;99715.88;5092920;28;20047;-52
2021/11/13 07:25:27;;;;;;;0.73;0.15;;;;;;;15.00;100.00;99729.38;5093121;28;20074;-52
2021/11/13 07:28:41;;;;;;;0.73;0.25;;;;;;;15.10;100.00;99727.84;5092619;28;20043;-51
2021/11/13 07:31:44;;;;;;;0.90;0.38;;;;;;;13.55;100.00;99744.88;5093038;28;20446;-52
2021/11/13 07:34:47;;;;;;;6.38;0.45;;;;;;;14.27;100.00;99747.28;5071542;28;20067;-52
2021/11/13 07:37:49;;;;;;;2.78;1.08;;;;;;;14.72;100.00;99745.41;5083403;28;20491;-52
2021/11/13 07:40:52;;;;;;;0.73;0.57;;;;;;;14.74;100.00;99749.22;5091977;28;20502;-51
2021/11/13 07:43:55;;;;;;;0.77;0.45;;;;;;;14.89;100.00;99760.97;5071930;28;20039;-51
2021/11/13 07:46:58;;;;;;;0.10;0.10;;;;;;;14.85;100.00;99762.50;5071879;28;20557;-52
2021/11/13 07:50:03;;;;;;;1.40;0.75;;;;;;;14.82;100.00;99769.88;5072359;28;20047;-51
2021/11/13 07:53:07;;;;;;;0.60;0.60;;;;;;;14.84;100.00;99772.94;5078215;28;20100;-51
2021/11/13 07:56:10;;;;;;;5.70;1.27;;;;;;;13.20;100.00;99785.50;5092081;28;20235;-52
2021/11/13 07:59:14;;;;;;;0.25;0.25;;;;;;;11.91;100.00;99813.19;5091951;28;20088;-53
2021/11/13 08:02:17;;;;;;;1.10;0.32;;;;;;;11.67;100.00;99815.38;5092362;28;20149;-52
2021/11/13 08:05:21;;;;;;;0.38;0.30;;;;;;;11.54;100.00;99823.25;5092290;28;20101;-52
2021/11/13 08:08:24;;;;;;;1.30;0.50;;;;;;;11.52;100.00;99833.34;5092254;28;20086;-53
2021/11/13 08:11:27;;;;;;;1.85;0.35;;;;;;;12.57;100.00;99818.13;5092110;28;20047;-52
2021/11/13 08:14:30;;;;;;;4.05;1.05;;;;;;;12.71;100.00;99812.44;5092610;28;20124;-52
2021/11/13 08:17:33;;;;;;;0.75;0.52;;;;;;;12.72;100.00;99813.22;5076541;28;20098;-52
2021/11/13 08:20:39;;;;;;;7.32;1.00;;;;;;;12.67;100.00;99817.47;5075787;28;20428;-52
2021/11/13 08:23:42;;;;;;;1.27;1.00;;;;;;;12.68;100.00;99827.41;5075589;28;20055;-53
2021/11/13 08:26:46;;;;;;;1.75;0.20;;;;;;;12.78;100.00;99833.59;5090933;28;20140;-52
2021/11/13 08:29:49;;;;;;;0.38;0.20;;;;;;;12.91;100.00;99836.78;5094796;28;20603;-51
2021/11/13 08:32:52;;;;;;;2.78;0.45;;;;;;;13.05;100.00;99835.97;5095807;28;20503;-52
2021/11/13 08:35:56;;;;;;;1.30;0.43;;;;;;;13.21;100.00;99838.13;5095625;28;20055;-51
2021/11/13 08:38:58;;;;;;;2.05;0.25;;;;;;;13.18;100.00;99850.31;5094527;28;20043;-52
2021/11/13 08:42:11;;;;;;;0.10;0.10;;;;;;;13.26;100.00;99856.22;5095536;28;20392;-52
2021/11/13 08:45:14;;;;;;;0.30;0.10;;;;;;;13.28;100.00;99856.50;5095783;28;20511;-52
2021/11/13 08:48:18;;;;;;;0.10;0.00;;;;;;;13.34;100.00;99852.50;5095391;28;20500;-51
2021/11/13 08:51:20;;;;;;;10.70;1.08;;;;;;;13.27;100.00;99864.16;5095572;28;20046;-51
2021/11/13 08:54:23;;;;;;;0.20;0.10;;;;;;;13.36;100.00;99871.59;5095205;28;20047;-51
2021/11/13 08:57:26;;;;;;;3.72;0.55;;;;;;;13.37;100.00;99875.94;5095211;28;20128;-51
2021/11/13 09:00:39;;;;;;;1.38;1.10;;;;;;;13.31;100.00;99875.09;5095192;28;20121;-52
2021/11/13 09:03:43;;;;;;;5.90;0.40;;;;;;;13.26;100.00;99884.97;5074572;28;20102;-51
2021/11/13 09:06:45;;;;;;;0.20;0.20;;;;;;;13.40;100.00;99892.50;5074684;28;20047;-51
2021/11/13 09:09:49;;;;;;;4.32;0.75;;;;;;;13.56;100.00;99891.09;5074661;28;20048;-51
2021/11/13 09:12:53;;;;;;;3.30;0.30;;;;;;;13.63;100.00;99890.66;5074719;28;20507;-51
2021/11/13 09:16:01;;;;;;;16.65;1.00;;;;;;;13.78;100.00;99882.13;5079167;28;20109;-51
2021/11/13 09:19:04;;;;;;;2.28;0.30;;;;;;;13.83;100.00;99892.63;5094439;28;20108;-51
2021/11/13 09:22:08;;;;;;;6.70;0.93;;;;;;;13.86;100.00;99886.03;5094125;28;20451;-51
2021/11/13 09:25:11;;;;;;;6.32;1.02;;;;;;;13.92;100.00;99896.00;5095257;28;20112;-51
2021/11/13 09:28:15;;;;;;;0.47;0.20;;;;;;;13.99;100.00;99900.38;5094542;28;20661;-51
2021/11/13 09:31:18;;;;;;;7.18;0.85;;;;;;;14.08;100.00;99898.16;5094628;28;20083;-51
2021/11/13 09:34:21;;;;;;;2.40;0.35;;;;;;;14.12;100.00;99909.13;5094169;28;20050;-52
2021/11/13 09:37:25;;;;;;;0.25;0.25;;;;;;;14.27;100.00;99904.16;5092861;28;20051;-51
2021/11/13 09:40:29;;;;;;;11.43;0.90;;;;;;;14.42;100.00;99902.72;5094029;28;20135;-51
2021/11/13 09:43:34;;;;;;;0.40;0.20;;;;;;;14.51;100.00;99898.94;5094252;28;20119;-51
2021/11/13 09:46:39;;;;;;;0.65;0.50;;;;;;;15.24;100.00;99911.22;5094145;28;20121;-51
2021/11/13 09:49:41;;;;;;;0.28;0.20;;;;;;;15.65;100.00;99906.75;5092458;28;20105;-51
2021/11/13 09:52:45;;;;;;;4.43;0.40;;;;;;;15.97;100.00;99913.63;5094273;28;20109;-51
2021/11/13 09:55:49;;;;;;;2.53;0.40;;;;;;;16.01;100.00;99916.97;5093965;28;20043;-51
2021/11/13 09:58:53;;;;;;;9.18;1.15;;;;;;;16.14;100.00;99914.41;5093081;28;20487;-51
2021/11/13 10:01:56;;;;;;;0.10;0.00;;;;;;;16.12;100.00;99916.94;5093962;28;20055;-51
2021/11/13 10:04:59;;;;;;;0.52;0.52;;;;;;;16.28;100.00;99916.19;5093507;28;20139;-51
2021/11/13 10:08:04;;;;;;;0.73;0.45;;;;;;;16.25;100.00;99920.00;5093217;28;20136;-51
2021/11/13 10:11:14;;;;;;;0.63;0.10;;;;;;;16.31;100.00;99915.13;5079562;28;20106;-50
2021/11/13 10:14:32;;;;;;;1.17;0.35;;;;;;;16.23;100.00;99910.56;5073464;28;20568;-50
2021/11/13 10:17:36;;;;;;;0.95;0.57;;;;;;;16.12;100.00;99922.56;5091376;28;20448;-50
2021/11/13 10:20:46;;;;;;;7.88;1.50;;;;;;;16.12;100.00;99922.56;5092116;28;20082;-50
2021/11/13 10:23:50;;;;;;;3.00;0.70;;;;;;;16.18;100.00;99926.13;5093117;28;20106;-51
2021/11/13 10:27:00;;;;;;;3.33;0.32;;;;;;;16.19;100.00;99936.13;5093204;28;20043;-50
2021/11/13 10:30:19;;;;;;;2.78;0.70;;;;;;;16.24;100.00;99940.94;5093680;28;20131;-50
2021/11/13 10:33:30;;;;;;;0.30;0.22;;;;;;;14.81;100.00;99944.97;5093790;28;20051;-50
2021/11/13 10:36:43;;;;;;;8.48;0.93;;;;;;;14.60;100.00;99949.19;5093351;28;20116;-50
2021/11/13 10:39:47;;;;;;;7.38;0.63;;;;;;;15.10;100.00;99947.41;5091418;28;20062;-51
2021/11/13 10:43:01;;;;;;;2.20;0.38;;;;;;;15.15;100.00;99946.66;5093036;28;20055;-51
2021/11/13 10:46:12;;;;;;;4.47;1.63;;;;;;;15.24;100.00;99942.09;5092786;28;20454;-50
2021/11/13 10:49:16;;;;;;;4.53;1.17;;;;;;;15.22;100.00;99951.03;5093304;28;20500;-51
2021/11/13 10:52:20;;;;;;;3.60;0.52;;;;;;;15.16;100.00;99953.03;5092741;28;20436;-51
2021/11/13 10:55:25;;;;;;;0.82;0.25;;;;;;;15.29;100.00;99952.56;5092811;28;20142;-51
2021/11/13 10:58:33;;;;;;;0.40;0.40;;;;;;;15.47;100.00;99957.75;5092499;28;20190;-51
2021/11/13 11:01:46;;;;;;;2.95;0.45;;;;;;;15.68;100.00;99962.63;5093278;28;20081;-51
2021/11/13 11:04:49;;;;;;;1.17;0.20;;;;;;;15.64;100.00;99962.13;5091327;28;20051;-49
2021/11/13 11:07:53;;;;;;;11.35;1.48;;;;;;;15.71;100.00;99956.00;5083120;28;20126;-50
2021/11/13 11:10:58;;;;;;;8.23;0.80;;;;;;;15.76;100.00;99957.28;5072356;28;20063;-50
2021/11/13 11:14:05;;;;;;;3.78;0.88;;;;;;;15.74;100.00;99969.00;5071932;28;20556;-49
2021/11/13 11:17:14;;;;;;;5.10;0.88;;;;;;;15.68;100.00;99961.88;5086510;28;20507;-49
2021/11/13 11:20:19;;;;;;;0.88;0.68;;;;;;;15.71;100.00;99960.84;5092842;28;20055;-50
2021/11/13 11:23:22;;;;;;;1.50;0.45;;;;;;;15.86;100.00;99972.63;5092638;28;20050;-50
2021/11/13 11:26:25;;;;;;;1.65;0.70;;;;;;;16.04;100.00;99966.50;5092829;28;20039;-50
2021/11/13 11:29:32;;;;;;;5.05;0.30;;;;;;;16.18;100.00;99962.66;5092180;28;20089;-51
2021/11/13 11:32:58;;;;;;;3.67;0.73;;;;;;;16.15;100.00;99969.31;5092290;28;20046;-50
2021/11/13 11:36:33;;;;;;;0.30;0.22;;;;;;;16.22;100.00;99965.97;5091210;28;20531;-50
2021/11/13 11:39:39;;;;;;;5.93;0.40;;;;;;;16.27;100.00;99967.25;5072414;28;20040;-50
2021/11/13 11:42:44;;;;;;;0.32;0.30;;;;;;;16.25;100.00;99958.56;5071314;28;20036;-50
2021/11/13 11:45:47;;;;;;;4.32;0.22;;;;;;;16.18;100.00;99965.47;5072286;28;20439;-50
2021/11/13 11:48:51;;;;;;;6.80;0.22;;;;;;;16.29;100.00;99967.50;5071976;28;20079;-49
2021/11/13 11:51:54;;;;;;;3.53;0.85;;;;;;;16.19;100.00;99967.03;5093210;28;20039;-50
2021/11/13 11:54:57;;;;;;;0.25;0.15;;;;;;;16.21;100.00;99966.50;5096603;28;20133;-49
2021/11/13 11:58:04;;;;;;;0.30;0.30;;;;;;;16.01;100.00;99983.59;5095875;28;20035;-50
2021/11/13 12:01:30;;;;;;;0.30;0.05;;;;;;;15.77;100.00;99984.84;5095216;28;20062;-50
2021/11/13 12:04:34;;;;;;;4.68;0.63;;;;;;;15.75;100.00;99979.00;5096010;28;20557;-49
2021/11/13 12:07:39;;;;;;;0.90;0.20;;;;;;;16.16;100.00;99979.28;5096211;28;20042;-50
2021/11/13 12:10:44;;;;;;;1.38;0.20;;;;;;;16.10;100.00;99975.69;5094997;28;20096;-51
2021/11/13 12:13:47;;;;;;;0.30;0.30;;;;;;;15.90;100.00;99985.13;5095532;28;20051;-50
2021/11/13 12:16:51;;;;;;;3.95;0.40;;;;;;;15.78;100.00;99982.81;5095567;28;20093;-50
2021/11/13 12:20:08;;;;;;;1.40;0.28;;;;;;;15.67;100.00;99985.59;5096042;28;20051;-50
2021/11/13 12:23:39;;;;;;;4.95;0.47;;;;;;;15.54;100.00;99993.75;5095208;28;20046;-50
2021/11/13 12:26:57;;;;;;;4.22;0.73;;;;;;;15.42;100.00;100001.31;5095951;28;20042;-50
2021/11/13 12:29:59;;;;;;;12.80;1.23;;;;;;;15.29;100.00;100003.81;5095690;28;20055;-50
2021/11/13 12:33:25;;;;;;;0.35;0.20;;;;;;;15.16;100.00;100007.09;5095915;28;20430;-59
2021/11/13 12:36:46;;;;;;;0.40;0.40;;;;;;;15.17;100.00;100011.44;5074968;28;20524;-59
2021/11/13 12:39:50;;;;;;;;;;;;;;;15.37;100.00;100015.34;5075282;28;20047;-59
2021/11/13 12:43:03;;;;;;;0.30;0.30;;;;;;;15.43;100.00;100016.13;5075420;28;19934;-59
2021/11/13 12:46:25;;;;;;;0.73;0.40;;;;;;;15.57;100.00;100018.00;5075127;28;20075;-59
2021/11/13 12:49:35;;;;;;;2.35;0.43;;;;;;;15.79;100.00;100018.81;5075473;28;20040;-59
2021/11/13 12:52:44;;;;;;;1.40;0.30;;;;;;;15.99;100.00;100020.63;5074891;28;20044;-59
2021/11/13 12:55:47;;;;;;;0.32;0.30;;;;;;;16.19;100.00;100031.66;5075218;28;20047;-60
2021/11/13 12:58:58;;;;;;;0.60;0.13;;;;;;;16.31;100.00;100033.19;5074120;28;20039;-59
2021/11/13 13:02:11;;;;;;;3.70;0.70;;;;;;;16.47;100.00;100029.59;5074469;28;20046;-59
2021/11/13 13:05:16;;;;;;;1.15;0.35;;;;;;;16.44;100.00;100033.44;5074959;28;20114;-59
2021/11/13 13:08:21;;;;;;;1.27;0.10;;;;;;;16.49;100.00;100029.88;5074429;28;20081;-58
2021/11/13 13:11:24;;;;;;;0.75;0.10;;;;;;;16.52;100.00;100040.09;5074396;28;20102;-59
2021/11/13 13:14:32;;;;;;;1.27;0.63;;;;;;;16.59;100.00;100042.41;5074848;28;20051;-59
2021/11/13 13:17:53;;;;;;;5.75;0.25;;;;;;;16.49;100.00;100034.72;5091536;28;20487;-59
2021/11/13 13:20:59;;;;;;;1.77;0.30;;;;;;;16.33;100.00;100033.44;5095005;28;20042;-59
2021/11/13 13:24:10;;;;;;;6.45;0.30;;;;;;;16.30;100.00;100039.31;5093626;28;20042;-58
2021/11/13 13:27:14;;;;;;;0.30;0.10;;;;;;;16.36;100.00;100038.03;5094436;28;20130;-59
2021/11/13 13:30:16;;;;;;;0.98;0.30;;;;;;;16.31;100.00;100046.47;5093702;28;20051;-59
2021/11/13 13:33:21;;;;;;;1.08;0.40;;;;;;;16.25;100.00;100040.84;5093922;28;20047;-59
2021/11/13 13:36:26;;;;;;;0.10;0.05;;;;;;;16.13;100.00;100047.75;5093041;28;20063;-58
2021/11/13 13:39:29;;;;;;;1.60;0.20;;;;;;;16.01;100.00;100036.97;5094378;28;20047;-58
2021/11/13 13:42:38;;;;;;;0.50;0.20;;;;;;;15.86;100.00;100034.41;5094231;28;20173;-58
2021/11/13 13:45:49;;;;;;;1.65;0.55;;;;;;;15.72;100.00;100038.22;5074286;28;20070;-58
2021/11/13 13:48:57;;;;;;;;;;;;;;;15.67;100.00;100036.94;5074308;28;20147;-59
2021/11/13 13:52:06;;;;;;;0.90;0.30;;;;;;;15.45;100.00;100038.88;5074035;28;19923;-58
2021/11/13 13:55:14;;;;;;;4.30;0.63;;;;;;;15.59;100.00;100035.13;5074411;28;20408;-59
2021/11/13 13:58:17;;;;;;;2.33;0.30;;;;;;;15.51;100.00;100031.22;5073119;28;20443;-57
2021/11/13 14:01:21;;;;;;;1.95;0.43;;;;;;;15.37;100.00;100038.56;5089542;28;20089;-58
2021/11/13 14:04:27;;;;;;;1.10;0.28;;;;;;;15.43;100.00;100035.78;5093826;28;20250;-58
2021/11/13 14:07:32;;;;;;;9.45;0.75;;;;;;;15.25;100.00;100042.59;5093957;28;20101;-58
2021/11/13 14:10:47;;;;;;;0.52;0.30;;;;;;;15.24;100.00;100041.06;5093936;28;20046;-58
2021/11/13 14:13:51;;;;;;;5.32;1.33;;;;;;;15.09;100.00;100046.84;5091199;28;20108;-57
2021/11/13 14:16:54;;;;;;;1.38;0.30;;;;;;;15.05;100.00;100051.91;5084876;28;20106;-58
2021/11/13 14:19:58;;;;;;;1.25;0.70;;;;;;;15.15;100.00;100050.47;5073344;28;20063;-58